Terminal Aerodrome Forecast
Issued by NWS

Current Version | Previous Version | Text Only | Print | Product List | Glossary Off
Versions: 1 2 3 4 5 6 7 8 9 10 11 12 13 14 15 16 17 18

000
FTUS41 KILN 192300
TAFLCK
TAF
KLCK 192332Z 2000/2024 23011KT P6SM VCSH OVC045
     FM200500 27014KT P6SM OVC025
     FM201000 25012KT P6SM OVC035
     FM201400 25014G22KT P6SM OVC035=

USA.gov is the U.S. government's official web portal to all federal, state and local government web resources and services.